sensor_id;sensor_type;location;lat;lon;timestamp;P1;durP1;ratioP1;P2;durP2;ratioP2
34212;SDS011;20477;51.390;8.102;2023-07-31T00:01:14;6.70;;;3.33;;
34212;SDS011;20477;51.390;8.102;2023-07-31T00:03:42;11.63;;;3.45;;
34212;SDS011;20477;51.390;8.102;2023-07-31T00:06:10;6.25;;;3.25;;
34212;SDS011;20477;51.390;8.102;2023-07-31T00:08:39;7.38;;;3.42;;
34212;SDS011;20477;51.390;8.102;2023-07-31T00:11:07;6.38;;;3.00;;
34212;SDS011;20477;51.390;8.102;2023-07-31T00:13:36;5.28;;;3.15;;
34212;SDS011;20477;51.390;8.102;2023-07-31T00:16:04;3.78;;;2.42;;
34212;SDS011;20477;51.390;8.102;2023-07-31T00:18:33;6.63;;;2.80;;
34212;SDS011;20477;51.390;8.102;2023-07-31T00:21:01;7.00;;;2.78;;
34212;SDS011;20477;51.390;8.102;2023-07-31T00:23:29;5.03;;;2.40;;
34212;SDS011;20477;51.390;8.102;2023-07-31T00:25:57;5.40;;;2.80;;
34212;SDS011;20477;51.390;8.102;2023-07-31T00:28:25;3.22;;;2.20;;
34212;SDS011;20477;51.390;8.102;2023-07-31T00:30:55;3.88;;;2.30;;
34212;SDS011;20477;51.390;8.102;2023-07-31T00:33:23;3.45;;;2.47;;
34212;SDS011;20477;51.390;8.102;2023-07-31T00:35:51;4.05;;;2.13;;
34212;SDS011;20477;51.390;8.102;2023-07-31T00:38:19;6.13;;;2.72;;
34212;SDS011;20477;51.390;8.102;2023-07-31T00:40:47;5.97;;;2.88;;
34212;SDS011;20477;51.390;8.102;2023-07-31T00:43:15;4.32;;;2.80;;
34212;SDS011;20477;51.390;8.102;2023-07-31T00:45:43;7.85;;;2.97;;
34212;SDS011;20477;51.390;8.102;2023-07-31T00:48:13;5.65;;;3.00;;
34212;SDS011;20477;51.390;8.102;2023-07-31T00:50:41;7.75;;;3.42;;
34212;SDS011;20477;51.390;8.102;2023-07-31T00:53:09;8.43;;;3.58;;
34212;SDS011;20477;51.390;8.102;2023-07-31T00:55:37;5.68;;;3.42;;
34212;SDS011;20477;51.390;8.102;2023-07-31T00:58:05;9.02;;;3.95;;
34212;SDS011;20477;51.390;8.102;2023-07-31T01:00:33;12.23;;;3.83;;
34212;SDS011;20477;51.390;8.102;2023-07-31T01:03:02;8.00;;;3.80;;
34212;SDS011;20477;51.390;8.102;2023-07-31T01:05:33;8.43;;;3.17;;
34212;SDS011;20477;51.390;8.102;2023-07-31T01:08:08;6.75;;;3.53;;
34212;SDS011;20477;51.390;8.102;2023-07-31T01:13:09;8.77;;;3.58;;
34212;SDS011;20477;51.390;8.102;2023-07-31T01:15:37;8.52;;;3.85;;
34212;SDS011;20477;51.390;8.102;2023-07-31T01:18:06;7.20;;;3.60;;
34212;SDS011;20477;51.390;8.102;2023-07-31T01:20:35;9.48;;;3.67;;
34212;SDS011;20477;51.390;8.102;2023-07-31T01:23:08;5.55;;;3.50;;
34212;SDS011;20477;51.390;8.102;2023-07-31T01:26:04;6.50;;;3.50;;
34212;SDS011;20477;51.390;8.102;2023-07-31T01:28:38;10.32;;;3.55;;
34212;SDS011;20477;51.390;8.102;2023-07-31T01:31:12;7.70;;;3.55;;
34212;SDS011;20477;51.390;8.102;2023-07-31T01:33:45;9.75;;;4.15;;
34212;SDS011;20477;51.390;8.102;2023-07-31T01:36:13;13.35;;;4.10;;
34212;SDS011;20477;51.390;8.102;2023-07-31T01:38:42;8.45;;;4.15;;
34212;SDS011;20477;51.390;8.102;2023-07-31T01:41:11;9.70;;;4.70;;
34212;SDS011;20477;51.390;8.102;2023-07-31T01:43:40;13.32;;;5.07;;
34212;SDS011;20477;51.390;8.102;2023-07-31T01:46:08;10.52;;;4.40;;
34212;SDS011;20477;51.390;8.102;2023-07-31T01:48:36;10.23;;;4.95;;
34212;SDS011;20477;51.390;8.102;2023-07-31T01:51:04;9.10;;;4.40;;
34212;SDS011;20477;51.390;8.102;2023-07-31T01:53:32;17.02;;;5.05;;
34212;SDS011;20477;51.390;8.102;2023-07-31T01:56:00;13.57;;;5.25;;
34212;SDS011;20477;51.390;8.102;2023-07-31T01:58:30;9.15;;;4.80;;
34212;SDS011;20477;51.390;8.102;2023-07-31T02:00:58;13.63;;;4.80;;
34212;SDS011;20477;51.390;8.102;2023-07-31T02:03:26;12.68;;;5.70;;
34212;SDS011;20477;51.390;8.102;2023-07-31T02:05:54;9.98;;;5.65;;
34212;SDS011;20477;51.390;8.102;2023-07-31T02:08:23;11.20;;;5.07;;
34212;SDS011;20477;51.390;8.102;2023-07-31T02:10:51;14.30;;;5.22;;
34212;SDS011;20477;51.390;8.102;2023-07-31T02:13:19;15.77;;;5.07;;
34212;SDS011;20477;51.390;8.102;2023-07-31T02:15:49;10.85;;;5.00;;
34212;SDS011;20477;51.390;8.102;2023-07-31T02:18:18;13.57;;;5.53;;
34212;SDS011;20477;51.390;8.102;2023-07-31T02:20:48;17.50;;;6.07;;
34212;SDS011;20477;51.390;8.102;2023-07-31T02:23:17;12.25;;;5.18;;
34212;SDS011;20477;51.390;8.102;2023-07-31T02:25:45;15.43;;;5.38;;
34212;SDS011;20477;51.390;8.102;2023-07-31T02:28:13;13.90;;;4.95;;
34212;SDS011;20477;51.390;8.102;2023-07-31T02:30:43;14.80;;;5.60;;
34212;SDS011;20477;51.390;8.102;2023-07-31T02:33:14;11.57;;;5.10;;
34212;SDS011;20477;51.390;8.102;2023-07-31T02:35:42;11.43;;;4.97;;
34212;SDS011;20477;51.390;8.102;2023-07-31T02:38:10;10.52;;;4.78;;
34212;SDS011;20477;51.390;8.102;2023-07-31T02:40:39;13.68;;;4.97;;
34212;SDS011;20477;51.390;8.102;2023-07-31T02:43:07;9.48;;;4.10;;
34212;SDS011;20477;51.390;8.102;2023-07-31T02:45:35;12.57;;;4.70;;
34212;SDS011;20477;51.390;8.102;2023-07-31T02:48:04;12.40;;;4.28;;
34212;SDS011;20477;51.390;8.102;2023-07-31T02:50:34;12.52;;;5.18;;
34212;SDS011;20477;51.390;8.102;2023-07-31T02:53:02;11.30;;;4.15;;
34212;SDS011;20477;51.390;8.102;2023-07-31T02:55:30;9.30;;;4.40;;
34212;SDS011;20477;51.390;8.102;2023-07-31T02:57:58;11.70;;;4.20;;
34212;SDS011;20477;51.390;8.102;2023-07-31T03:00:27;12.73;;;4.22;;
34212;SDS011;20477;51.390;8.102;2023-07-31T03:02:55;16.20;;;3.72;;
34212;SDS011;20477;51.390;8.102;2023-07-31T03:05:23;14.30;;;4.25;;
34212;SDS011;20477;51.390;8.102;2023-07-31T03:07:53;15.43;;;3.75;;
34212;SDS011;20477;51.390;8.102;2023-07-31T03:10:21;11.80;;;3.92;;
34212;SDS011;20477;51.390;8.102;2023-07-31T03:12:49;6.88;;;3.63;;
34212;SDS011;20477;51.390;8.102;2023-07-31T03:15:17;12.77;;;4.45;;
34212;SDS011;20477;51.390;8.102;2023-07-31T03:17:46;14.52;;;4.57;;
34212;SDS011;20477;51.390;8.102;2023-07-31T03:20:14;8.10;;;3.67;;
34212;SDS011;20477;51.390;8.102;2023-07-31T03:22:45;11.45;;;4.22;;
34212;SDS011;20477;51.390;8.102;2023-07-31T03:25:15;11.07;;;3.67;;
34212;SDS011;20477;51.390;8.102;2023-07-31T03:27:43;12.98;;;4.35;;
34212;SDS011;20477;51.390;8.102;2023-07-31T03:30:11;14.23;;;4.40;;
34212;SDS011;20477;51.390;8.102;2023-07-31T03:32:39;12.38;;;4.55;;
34212;SDS011;20477;51.390;8.102;2023-07-31T03:35:07;12.98;;;4.93;;
34212;SDS011;20477;51.390;8.102;2023-07-31T03:37:35;12.13;;;4.53;;
34212;SDS011;20477;51.390;8.102;2023-07-31T03:40:04;12.45;;;4.72;;
34212;SDS011;20477;51.390;8.102;2023-07-31T03:42:34;10.95;;;4.10;;
34212;SDS011;20477;51.390;8.102;2023-07-31T03:45:03;10.18;;;4.13;;
34212;SDS011;20477;51.390;8.102;2023-07-31T03:47:31;15.10;;;4.88;;
34212;SDS011;20477;51.390;8.102;2023-07-31T03:50:00;9.27;;;4.03;;
34212;SDS011;20477;51.390;8.102;2023-07-31T03:52:28;10.30;;;3.83;;
34212;SDS011;20477;51.390;8.102;2023-07-31T03:54:56;11.55;;;4.22;;
34212;SDS011;20477;51.390;8.102;2023-07-31T03:57:24;15.43;;;5.03;;
34212;SDS011;20477;51.390;8.102;2023-07-31T03:59:54;9.45;;;4.28;;
34212;SDS011;20477;51.390;8.102;2023-07-31T04:02:22;10.82;;;4.55;;
34212;SDS011;20477;51.390;8.102;2023-07-31T04:04:50;11.93;;;4.63;;
34212;SDS011;20477;51.390;8.102;2023-07-31T04:07:18;12.60;;;3.83;;
34212;SDS011;20477;51.390;8.102;2023-07-31T04:09:46;14.65;;;4.20;;
34212;SDS011;20477;51.390;8.102;2023-07-31T04:12:14;13.38;;;4.47;;
34212;SDS011;20477;51.390;8.102;2023-07-31T04:14:42;13.68;;;4.57;;
34212;SDS011;20477;51.390;8.102;2023-07-31T04:17:12;11.90;;;4.38;;
34212;SDS011;20477;51.390;8.102;2023-07-31T04:19:40;10.20;;;4.60;;
34212;SDS011;20477;51.390;8.102;2023-07-31T04:22:08;11.43;;;4.45;;
34212;SDS011;20477;51.390;8.102;2023-07-31T04:24:36;10.43;;;4.28;;
34212;SDS011;20477;51.390;8.102;2023-07-31T04:27:05;13.32;;;5.03;;
34212;SDS011;20477;51.390;8.102;2023-07-31T04:29:33;14.63;;;5.30;;
34212;SDS011;20477;51.390;8.102;2023-07-31T04:32:01;8.43;;;3.83;;
34212;SDS011;20477;51.390;8.102;2023-07-31T04:34:31;11.77;;;4.05;;
34212;SDS011;20477;51.390;8.102;2023-07-31T04:36:59;10.30;;;3.90;;
34212;SDS011;20477;51.390;8.102;2023-07-31T04:39:27;8.80;;;4.10;;
34212;SDS011;20477;51.390;8.102;2023-07-31T04:41:55;10.95;;;4.82;;
34212;SDS011;20477;51.390;8.102;2023-07-31T04:44:23;11.00;;;4.80;;
34212;SDS011;20477;51.390;8.102;2023-07-31T04:46:51;10.25;;;3.97;;
34212;SDS011;20477;51.390;8.102;2023-07-31T04:49:20;11.73;;;4.03;;
34212;SDS011;20477;51.390;8.102;2023-07-31T04:51:49;13.35;;;4.40;;
34212;SDS011;20477;51.390;8.102;2023-07-31T04:54:17;8.20;;;4.25;;
34212;SDS011;20477;51.390;8.102;2023-07-31T04:56:46;11.15;;;4.45;;
34212;SDS011;20477;51.390;8.102;2023-07-31T04:59:14;11.57;;;4.90;;
34212;SDS011;20477;51.390;8.102;2023-07-31T05:01:42;9.60;;;4.38;;
34212;SDS011;20477;51.390;8.102;2023-07-31T05:04:12;13.63;;;4.10;;
34212;SDS011;20477;51.390;8.102;2023-07-31T05:06:40;17.60;;;5.05;;
34212;SDS011;20477;51.390;8.102;2023-07-31T05:09:10;10.07;;;4.38;;
34212;SDS011;20477;51.390;8.102;2023-07-31T05:11:38;12.45;;;4.15;;
34212;SDS011;20477;51.390;8.102;2023-07-31T05:14:09;13.00;;;4.63;;
34212;SDS011;20477;51.390;8.102;2023-07-31T05:16:37;14.20;;;4.68;;
34212;SDS011;20477;51.390;8.102;2023-07-31T05:19:06;14.75;;;4.75;;
34212;SDS011;20477;51.390;8.102;2023-07-31T05:21:34;16.52;;;4.72;;
34212;SDS011;20477;51.390;8.102;2023-07-31T05:24:02;15.57;;;4.18;;
34212;SDS011;20477;51.390;8.102;2023-07-31T05:26:32;14.90;;;4.47;;
34212;SDS011;20477;51.390;8.102;2023-07-31T05:29:00;13.63;;;4.63;;
34212;SDS011;20477;51.390;8.102;2023-07-31T05:31:28;14.13;;;4.93;;
34212;SDS011;20477;51.390;8.102;2023-07-31T05:33:58;12.88;;;4.07;;
34212;SDS011;20477;51.390;8.102;2023-07-31T05:36:26;9.75;;;3.80;;
34212;SDS011;20477;51.390;8.102;2023-07-31T05:38:54;11.57;;;5.18;;
34212;SDS011;20477;51.390;8.102;2023-07-31T05:41:22;10.98;;;4.53;;
34212;SDS011;20477;51.390;8.102;2023-07-31T05:43:52;9.63;;;4.95;;
34212;SDS011;20477;51.390;8.102;2023-07-31T05:46:20;13.23;;;5.40;;
34212;SDS011;20477;51.390;8.102;2023-07-31T05:48:48;8.93;;;4.82;;
34212;SDS011;20477;51.390;8.102;2023-07-31T05:51:16;12.88;;;4.28;;
34212;SDS011;20477;51.390;8.102;2023-07-31T05:53:45;6.95;;;4.03;;
34212;SDS011;20477;51.390;8.102;2023-07-31T05:56:13;9.55;;;3.90;;
34212;SDS011;20477;51.390;8.102;2023-07-31T05:58:41;8.32;;;4.15;;
34212;SDS011;20477;51.390;8.102;2023-07-31T06:01:10;9.75;;;4.40;;
34212;SDS011;20477;51.390;8.102;2023-07-31T06:03:38;12.80;;;4.40;;
34212;SDS011;20477;51.390;8.102;2023-07-31T06:06:07;10.98;;;4.65;;
34212;SDS011;20477;51.390;8.102;2023-07-31T06:08:35;9.85;;;5.05;;
34212;SDS011;20477;51.390;8.102;2023-07-31T06:11:03;12.43;;;5.00;;
34212;SDS011;20477;51.390;8.102;2023-07-31T06:13:32;9.10;;;3.40;;
34212;SDS011;20477;51.390;8.102;2023-07-31T06:16:00;10.27;;;5.00;;
34212;SDS011;20477;51.390;8.102;2023-07-31T06:18:33;7.95;;;4.40;;
34212;SDS011;20477;51.390;8.102;2023-07-31T06:21:01;10.95;;;4.80;;
34212;SDS011;20477;51.390;8.102;2023-07-31T06:23:29;9.57;;;4.07;;
34212;SDS011;20477;51.390;8.102;2023-07-31T06:25:57;8.40;;;3.67;;
34212;SDS011;20477;51.390;8.102;2023-07-31T06:28:27;10.25;;;4.50;;
34212;SDS011;20477;51.390;8.102;2023-07-31T06:30:56;9.38;;;4.32;;
34212;SDS011;20477;51.390;8.102;2023-07-31T06:33:24;13.27;;;4.50;;
34212;SDS011;20477;51.390;8.102;2023-07-31T06:35:54;8.52;;;4.72;;
34212;SDS011;20477;51.390;8.102;2023-07-31T06:38:24;11.25;;;4.00;;
34212;SDS011;20477;51.390;8.102;2023-07-31T06:40:53;10.65;;;4.65;;
34212;SDS011;20477;51.390;8.102;2023-07-31T06:43:21;9.95;;;4.93;;
34212;SDS011;20477;51.390;8.102;2023-07-31T06:45:52;8.80;;;4.70;;
34212;SDS011;20477;51.390;8.102;2023-07-31T06:48:20;7.70;;;4.32;;
34212;SDS011;20477;51.390;8.102;2023-07-31T06:50:48;10.85;;;5.20;;
34212;SDS011;20477;51.390;8.102;2023-07-31T06:53:17;10.35;;;5.00;;
34212;SDS011;20477;51.390;8.102;2023-07-31T06:55:45;10.52;;;4.75;;
34212;SDS011;20477;51.390;8.102;2023-07-31T06:58:14;8.05;;;4.90;;
34212;SDS011;20477;51.390;8.102;2023-07-31T07:00:42;10.55;;;5.60;;
34212;SDS011;20477;51.390;8.102;2023-07-31T07:03:10;11.50;;;5.03;;
34212;SDS011;20477;51.390;8.102;2023-07-31T07:05:41;13.07;;;5.05;;
34212;SDS011;20477;51.390;8.102;2023-07-31T07:08:09;9.98;;;4.60;;
34212;SDS011;20477;51.390;8.102;2023-07-31T07:10:38;10.88;;;5.50;;
34212;SDS011;20477;51.390;8.102;2023-07-31T07:13:06;10.13;;;4.90;;
34212;SDS011;20477;51.390;8.102;2023-07-31T07:15:35;13.07;;;5.50;;
34212;SDS011;20477;51.390;8.102;2023-07-31T07:18:03;8.60;;;5.03;;
34212;SDS011;20477;51.390;8.102;2023-07-31T07:20:31;10.52;;;5.30;;
34212;SDS011;20477;51.390;8.102;2023-07-31T07:22:59;12.00;;;5.57;;
34212;SDS011;20477;51.390;8.102;2023-07-31T07:25:27;8.38;;;4.90;;
34212;SDS011;20477;51.390;8.102;2023-07-31T07:27:57;8.18;;;4.72;;
34212;SDS011;20477;51.390;8.102;2023-07-31T07:30:25;11.70;;;5.10;;
34212;SDS011;20477;51.390;8.102;2023-07-31T07:32:53;10.23;;;4.95;;
34212;SDS011;20477;51.390;8.102;2023-07-31T07:35:22;10.55;;;4.95;;
34212;SDS011;20477;51.390;8.102;2023-07-31T07:37:50;8.82;;;4.05;;
34212;SDS011;20477;51.390;8.102;2023-07-31T07:40:18;11.15;;;4.30;;
34212;SDS011;20477;51.390;8.102;2023-07-31T07:42:46;16.42;;;5.00;;
34212;SDS011;20477;51.390;8.102;2023-07-31T07:45:16;6.72;;;3.70;;
34212;SDS011;20477;51.390;8.102;2023-07-31T07:47:44;7.57;;;3.83;;
34212;SDS011;20477;51.390;8.102;2023-07-31T07:50:13;8.05;;;4.38;;
34212;SDS011;20477;51.390;8.102;2023-07-31T07:52:41;6.68;;;3.47;;
34212;SDS011;20477;51.390;8.102;2023-07-31T07:55:09;5.90;;;3.33;;
34212;SDS011;20477;51.390;8.102;2023-07-31T07:57:38;8.50;;;3.90;;
34212;SDS011;20477;51.390;8.102;2023-07-31T08:00:07;7.05;;;3.40;;
34212;SDS011;20477;51.390;8.102;2023-07-31T08:02:38;7.40;;;3.65;;
34212;SDS011;20477;51.390;8.102;2023-07-31T08:05:06;6.57;;;3.40;;
34212;SDS011;20477;51.390;8.102;2023-07-31T08:07:35;8.02;;;3.35;;
34212;SDS011;20477;51.390;8.102;2023-07-31T08:10:03;8.93;;;3.47;;
34212;SDS011;20477;51.390;8.102;2023-07-31T08:12:32;4.28;;;3.30;;
34212;SDS011;20477;51.390;8.102;2023-07-31T08:15:00;6.53;;;3.55;;
34212;SDS011;20477;51.390;8.102;2023-07-31T08:17:29;7.50;;;3.63;;
34212;SDS011;20477;51.390;8.102;2023-07-31T08:19:59;7.97;;;3.60;;
34212;SDS011;20477;51.390;8.102;2023-07-31T08:22:27;6.18;;;3.08;;
34212;SDS011;20477;51.390;8.102;2023-07-31T08:24:55;8.73;;;3.45;;
34212;SDS011;20477;51.390;8.102;2023-07-31T08:27:23;8.35;;;3.53;;
34212;SDS011;20477;51.390;8.102;2023-07-31T08:29:52;11.57;;;4.70;;
34212;SDS011;20477;51.390;8.102;2023-07-31T08:32:20;5.05;;;3.33;;
34212;SDS011;20477;51.390;8.102;2023-07-31T08:34:49;8.20;;;4.22;;
34212;SDS011;20477;51.390;8.102;2023-07-31T08:37:19;8.82;;;3.63;;
34212;SDS011;20477;51.390;8.102;2023-07-31T08:39:47;8.65;;;3.70;;
34212;SDS011;20477;51.390;8.102;2023-07-31T08:42:16;9.98;;;3.65;;
34212;SDS011;20477;51.390;8.102;2023-07-31T08:44:44;7.25;;;3.80;;
34212;SDS011;20477;51.390;8.102;2023-07-31T08:47:12;5.97;;;3.60;;
34212;SDS011;20477;51.390;8.102;2023-07-31T08:49:41;8.65;;;4.22;;
34212;SDS011;20477;51.390;8.102;2023-07-31T08:52:10;6.85;;;3.78;;
34212;SDS011;20477;51.390;8.102;2023-07-31T08:54:40;7.95;;;3.63;;
34212;SDS011;20477;51.390;8.102;2023-07-31T08:57:08;7.13;;;3.67;;
34212;SDS011;20477;51.390;8.102;2023-07-31T08:59:36;9.52;;;4.00;;
34212;SDS011;20477;51.390;8.102;2023-07-31T09:02:06;11.35;;;3.90;;
34212;SDS011;20477;51.390;8.102;2023-07-31T09:04:35;11.90;;;3.97;;
34212;SDS011;20477;51.390;8.102;2023-07-31T09:07:04;9.20;;;4.00;;
34212;SDS011;20477;51.390;8.102;2023-07-31T09:09:33;6.45;;;3.58;;
34212;SDS011;20477;51.390;8.102;2023-07-31T09:12:02;8.85;;;2.80;;
34212;SDS011;20477;51.390;8.102;2023-07-31T09:14:31;8.13;;;3.30;;
34212;SDS011;20477;51.390;8.102;2023-07-31T09:17:00;5.43;;;2.83;;
34212;SDS011;20477;51.390;8.102;2023-07-31T09:19:29;5.78;;;3.40;;
34212;SDS011;20477;51.390;8.102;2023-07-31T09:22:00;8.45;;;3.55;;
34212;SDS011;20477;51.390;8.102;2023-07-31T09:24:31;7.32;;;3.50;;
34212;SDS011;20477;51.390;8.102;2023-07-31T09:27:00;6.32;;;3.28;;
34212;SDS011;20477;51.390;8.102;2023-07-31T09:29:30;9.18;;;3.20;;
34212;SDS011;20477;51.390;8.102;2023-07-31T09:31:58;3.50;;;2.83;;
34212;SDS011;20477;51.390;8.102;2023-07-31T09:34:30;6.20;;;2.70;;
34212;SDS011;20477;51.390;8.102;2023-07-31T09:37:04;4.88;;;3.17;;
34212;SDS011;20477;51.390;8.102;2023-07-31T09:39:33;7.20;;;3.13;;
34212;SDS011;20477;51.390;8.102;2023-07-31T09:42:14;5.80;;;2.97;;
34212;SDS011;20477;51.390;8.102;2023-07-31T09:44:52;6.07;;;3.08;;
34212;SDS011;20477;51.390;8.102;2023-07-31T09:47:24;5.25;;;2.90;;
34212;SDS011;20477;51.390;8.102;2023-07-31T09:49:53;3.65;;;2.50;;
34212;SDS011;20477;51.390;8.102;2023-07-31T09:52:21;3.65;;;2.33;;
34212;SDS011;20477;51.390;8.102;2023-07-31T09:54:49;4.28;;;2.25;;
34212;SDS011;20477;51.390;8.102;2023-07-31T09:57:19;3.50;;;2.35;;
34212;SDS011;20477;51.390;8.102;2023-07-31T09:59:49;7.82;;;2.65;;
34212;SDS011;20477;51.390;8.102;2023-07-31T10:02:20;3.30;;;2.33;;
34212;SDS011;20477;51.390;8.102;2023-07-31T10:04:50;3.45;;;2.20;;
34212;SDS011;20477;51.390;8.102;2023-07-31T10:07:18;2.97;;;2.30;;
34212;SDS011;20477;51.390;8.102;2023-07-31T10:09:48;4.05;;;2.53;;
34212;SDS011;20477;51.390;8.102;2023-07-31T10:12:16;4.18;;;2.47;;
34212;SDS011;20477;51.390;8.102;2023-07-31T10:14:47;3.58;;;2.20;;
34212;SDS011;20477;51.390;8.102;2023-07-31T10:17:15;4.50;;;2.25;;
34212;SDS011;20477;51.390;8.102;2023-07-31T10:19:45;3.63;;;1.98;;
34212;SDS011;20477;51.390;8.102;2023-07-31T10:22:14;3.20;;;1.83;;
34212;SDS011;20477;51.390;8.102;2023-07-31T10:24:42;2.20;;;1.75;;
34212;SDS011;20477;51.390;8.102;2023-07-31T10:27:11;2.83;;;2.00;;
34212;SDS011;20477;51.390;8.102;2023-07-31T10:29:41;2.28;;;1.80;;
34212;SDS011;20477;51.390;8.102;2023-07-31T10:32:10;4.85;;;1.90;;
34212;SDS011;20477;51.390;8.102;2023-07-31T10:34:39;3.17;;;1.90;;
34212;SDS011;20477;51.390;8.102;2023-07-31T10:37:21;3.63;;;1.98;;
34212;SDS011;20477;51.390;8.102;2023-07-31T10:39:56;3.58;;;1.60;;
34212;SDS011;20477;51.390;8.102;2023-07-31T10:42:32;3.22;;;1.55;;
34212;SDS011;20477;51.390;8.102;2023-07-31T10:45:04;2.60;;;1.48;;
34212;SDS011;20477;51.390;8.102;2023-07-31T10:47:42;4.65;;;1.92;;
34212;SDS011;20477;51.390;8.102;2023-07-31T10:50:12;3.53;;;1.45;;
34212;SDS011;20477;51.390;8.102;2023-07-31T10:52:43;5.82;;;1.65;;
34212;SDS011;20477;51.390;8.102;2023-07-31T10:55:14;2.15;;;1.60;;
34212;SDS011;20477;51.390;8.102;2023-07-31T10:57:44;3.60;;;1.70;;
34212;SDS011;20477;51.390;8.102;2023-07-31T11:00:19;3.25;;;1.45;;
34212;SDS011;20477;51.390;8.102;2023-07-31T11:02:59;4.45;;;1.63;;
34212;SDS011;20477;51.390;8.102;2023-07-31T11:05:41;2.53;;;1.50;;
34212;SDS011;20477;51.390;8.102;2023-07-31T11:08:14;3.67;;;1.57;;
34212;SDS011;20477;51.390;8.102;2023-07-31T11:10:43;3.60;;;1.35;;
34212;SDS011;20477;51.390;8.102;2023-07-31T11:13:13;3.95;;;1.83;;
34212;SDS011;20477;51.390;8.102;2023-07-31T11:15:42;2.42;;;1.30;;
34212;SDS011;20477;51.390;8.102;2023-07-31T11:18:10;2.65;;;1.20;;
34212;SDS011;20477;51.390;8.102;2023-07-31T11:20:38;9.98;;;1.23;;
34212;SDS011;20477;51.390;8.102;2023-07-31T11:23:07;3.97;;;1.70;;
34212;SDS011;20477;51.390;8.102;2023-07-31T11:25:37;2.28;;;1.33;;
34212;SDS011;20477;51.390;8.102;2023-07-31T11:28:09;2.00;;;1.13;;
34212;SDS011;20477;51.390;8.102;2023-07-31T11:30:38;1.63;;;1.10;;
34212;SDS011;20477;51.390;8.102;2023-07-31T11:33:09;1.35;;;0.90;;
34212;SDS011;20477;51.390;8.102;2023-07-31T11:35:41;1.20;;;0.90;;
34212;SDS011;20477;51.390;8.102;2023-07-31T11:38:11;0.98;;;0.70;;
34212;SDS011;20477;51.390;8.102;2023-07-31T11:40:43;1.17;;;0.80;;
34212;SDS011;20477;51.390;8.102;2023-07-31T11:43:11;1.42;;;0.98;;
34212;SDS011;20477;51.390;8.102;2023-07-31T11:45:44;1.38;;;1.15;;
34212;SDS011;20477;51.390;8.102;2023-07-31T11:48:22;1.38;;;1.13;;
34212;SDS011;20477;51.390;8.102;2023-07-31T11:50:53;5.93;;;1.55;;
34212;SDS011;20477;51.390;8.102;2023-07-31T11:53:24;3.42;;;1.08;;
34212;SDS011;20477;51.390;8.102;2023-07-31T11:55:54;3.15;;;1.23;;
34212;SDS011;20477;51.390;8.102;2023-07-31T11:58:22;2.60;;;1.58;;
34212;SDS011;20477;51.390;8.102;2023-07-31T12:00:51;3.85;;;1.58;;
34212;SDS011;20477;51.390;8.102;2023-07-31T12:03:19;2.95;;;1.55;;
34212;SDS011;20477;51.390;8.102;2023-07-31T12:05:49;2.63;;;1.60;;
34212;SDS011;20477;51.390;8.102;2023-07-31T12:08:17;4.32;;;1.95;;
34212;SDS011;20477;51.390;8.102;2023-07-31T12:10:49;2.47;;;1.90;;
34212;SDS011;20477;51.390;8.102;2023-07-31T12:13:20;3.03;;;1.70;;
34212;SDS011;20477;51.390;8.102;2023-07-31T12:15:53;4.78;;;1.52;;
34212;SDS011;20477;51.390;8.102;2023-07-31T12:18:24;2.92;;;1.52;;
34212;SDS011;20477;51.390;8.102;2023-07-31T12:20:54;6.55;;;2.05;;
34212;SDS011;20477;51.390;8.102;2023-07-31T12:23:24;2.65;;;1.73;;
34212;SDS011;20477;51.390;8.102;2023-07-31T12:26:00;2.50;;;1.60;;
34212;SDS011;20477;51.390;8.102;2023-07-31T12:28:29;5.07;;;1.67;;
34212;SDS011;20477;51.390;8.102;2023-07-31T12:30:57;2.17;;;1.90;;
34212;SDS011;20477;51.390;8.102;2023-07-31T12:33:31;3.88;;;1.83;;
34212;SDS011;20477;51.390;8.102;2023-07-31T12:36:00;3.50;;;1.52;;
34212;SDS011;20477;51.390;8.102;2023-07-31T12:38:29;2.40;;;1.63;;
34212;SDS011;20477;51.390;8.102;2023-07-31T12:40:58;1.27;;;1.17;;
34212;SDS011;20477;51.390;8.102;2023-07-31T12:43:26;3.90;;;1.60;;
34212;SDS011;20477;51.390;8.102;2023-07-31T12:45:54;2.33;;;1.70;;
34212;SDS011;20477;51.390;8.102;2023-07-31T12:48:23;6.88;;;1.60;;
34212;SDS011;20477;51.390;8.102;2023-07-31T12:50:52;2.70;;;1.92;;
34212;SDS011;20477;51.390;8.102;2023-07-31T12:53:20;4.82;;;1.73;;
34212;SDS011;20477;51.390;8.102;2023-07-31T12:55:49;2.30;;;1.75;;
34212;SDS011;20477;51.390;8.102;2023-07-31T12:58:17;3.17;;;1.92;;
34212;SDS011;20477;51.390;8.102;2023-07-31T13:00:45;2.33;;;1.85;;
34212;SDS011;20477;51.390;8.102;2023-07-31T13:03:13;2.53;;;2.10;;
34212;SDS011;20477;51.390;8.102;2023-07-31T13:05:42;2.50;;;2.00;;
34212;SDS011;20477;51.390;8.102;2023-07-31T13:08:12;2.92;;;2.20;;
34212;SDS011;20477;51.390;8.102;2023-07-31T13:10:42;2.65;;;2.15;;
34212;SDS011;20477;51.390;8.102;2023-07-31T13:13:10;4.85;;;2.58;;
34212;SDS011;20477;51.390;8.102;2023-07-31T13:15:38;2.78;;;2.22;;
34212;SDS011;20477;51.390;8.102;2023-07-31T13:18:08;5.75;;;2.38;;
34212;SDS011;20477;51.390;8.102;2023-07-31T13:20:36;4.97;;;2.50;;
34212;SDS011;20477;51.390;8.102;2023-07-31T13:23:04;3.63;;;2.40;;
34212;SDS011;20477;51.390;8.102;2023-07-31T13:25:34;3.70;;;2.30;;
34212;SDS011;20477;51.390;8.102;2023-07-31T13:28:02;2.55;;;2.03;;
34212;SDS011;20477;51.390;8.102;2023-07-31T13:30:31;2.95;;;2.10;;
34212;SDS011;20477;51.390;8.102;2023-07-31T13:32:59;5.05;;;2.20;;
34212;SDS011;20477;51.390;8.102;2023-07-31T13:35:27;13.57;;;2.53;;
34212;SDS011;20477;51.390;8.102;2023-07-31T13:37:54;2.40;;;2.20;;
34212;SDS011;20477;51.390;8.102;2023-07-31T13:40:23;6.97;;;2.38;;
34212;SDS011;20477;51.390;8.102;2023-07-31T13:42:52;4.93;;;2.70;;
34212;SDS011;20477;51.390;8.102;2023-07-31T13:45:21;8.73;;;3.15;;
34212;SDS011;20477;51.390;8.102;2023-07-31T13:47:49;4.13;;;2.65;;
34212;SDS011;20477;51.390;8.102;2023-07-31T13:50:19;2.60;;;2.40;;
34212;SDS011;20477;51.390;8.102;2023-07-31T13:52:49;3.10;;;2.67;;
34212;SDS011;20477;51.390;8.102;2023-07-31T13:55:17;4.15;;;2.83;;
34212;SDS011;20477;51.390;8.102;2023-07-31T13:57:45;3.78;;;2.92;;
34212;SDS011;20477;51.390;8.102;2023-07-31T14:00:15;4.68;;;2.75;;
34212;SDS011;20477;51.390;8.102;2023-07-31T14:02:43;3.83;;;2.85;;
34212;SDS011;20477;51.390;8.102;2023-07-31T14:05:12;4.22;;;2.50;;
34212;SDS011;20477;51.390;8.102;2023-07-31T14:07:40;3.92;;;2.60;;
34212;SDS011;20477;51.390;8.102;2023-07-31T14:10:08;3.65;;;2.70;;
34212;SDS011;20477;51.390;8.102;2023-07-31T14:12:37;3.97;;;2.10;;
34212;SDS011;20477;51.390;8.102;2023-07-31T14:15:09;2.70;;;2.13;;
34212;SDS011;20477;51.390;8.102;2023-07-31T14:17:39;6.10;;;2.30;;
34212;SDS011;20477;51.390;8.102;2023-07-31T14:20:08;3.00;;;2.33;;
34212;SDS011;20477;51.390;8.102;2023-07-31T14:22:40;3.13;;;2.00;;
34212;SDS011;20477;51.390;8.102;2023-07-31T14:25:09;2.97;;;1.60;;
34212;SDS011;20477;51.390;8.102;2023-07-31T14:27:38;2.92;;;1.60;;
34212;SDS011;20477;51.390;8.102;2023-07-31T14:30:07;3.90;;;1.77;;
34212;SDS011;20477;51.390;8.102;2023-07-31T14:32:36;3.80;;;1.40;;
34212;SDS011;20477;51.390;8.102;2023-07-31T14:35:06;3.53;;;1.70;;
34212;SDS011;20477;51.390;8.102;2023-07-31T14:37:38;1.58;;;1.38;;
34212;SDS011;20477;51.390;8.102;2023-07-31T14:40:07;1.63;;;1.52;;
34212;SDS011;20477;51.390;8.102;2023-07-31T14:42:36;2.45;;;2.03;;
34212;SDS011;20477;51.390;8.102;2023-07-31T14:45:05;3.10;;;1.40;;
34212;SDS011;20477;51.390;8.102;2023-07-31T14:47:35;2.33;;;1.00;;
34212;SDS011;20477;51.390;8.102;2023-07-31T14:50:04;1.45;;;1.35;;
34212;SDS011;20477;51.390;8.102;2023-07-31T14:52:34;1.52;;;1.42;;
34212;SDS011;20477;51.390;8.102;2023-07-31T14:55:03;3.15;;;1.52;;
34212;SDS011;20477;51.390;8.102;2023-07-31T14:57:32;2.58;;;1.75;;